Time;durP1;ratioP1;P1;durP2;ratioP2;P2;SDS_P1;SDS_P2;PMS_P1;PMS_P2;Temp;Humidity;BMP_temperature;BMP_pressure;BME280_temperature;BME280_humidity;BME280_pressure;Samples;Min_cycle;Max_cycle;Signal;HPM_P1;HPM_P2
2024/03/14 00:00:48;;;;;;;93.57;15.80;;;12.30;99.90;;;;;;5048778;28;20049;-59
2024/03/14 00:03:13;;;;;;;99.70;15.13;;;12.20;99.90;;;;;;5048421;28;20021;-59
2024/03/14 00:05:39;;;;;;;103.78;17.60;;;12.20;99.90;;;;;;5031930;28;20040;-59
2024/03/14 00:08:05;;;;;;;104.40;17.17;;;12.20;99.90;;;;;;5048837;28;20032;-59
2024/03/14 00:10:30;;;;;;;98.75;14.90;;;12.20;99.90;;;;;;5066624;28;20029;-58
2024/03/14 00:12:57;;;;;;;118.72;15.55;;;12.10;99.90;;;;;;5066256;28;20049;-59
2024/03/14 00:15:22;;;;;;;116.30;16.48;;;12.10;99.80;;;;;;5049351;28;20081;-58
2024/03/14 00:17:48;;;;;;;84.68;14.35;;;12.10;99.80;;;;;;5066614;28;20529;-58
2024/03/14 00:20:14;;;;;;;90.07;13.70;;;12.10;99.80;;;;;;5031690;28;20021;-59
2024/03/14 00:22:40;;;;;;;99.75;15.40;;;12.10;99.80;;;;;;5048623;28;20056;-59
2024/03/14 00:25:09;;;;;;;89.85;14.30;;;12.00;99.80;;;;;;5066421;28;20464;-59
2024/03/14 00:27:47;;;;;;;99.32;15.70;;;12.00;99.90;;;;;;5066423;28;20107;-58
2024/03/14 00:30:15;;;;;;;102.63;15.90;;;12.00;99.90;;;;;;5050346;28;20159;-58
2024/03/14 00:32:40;;;;;;;85.32;13.95;;;11.90;99.90;;;;;;5048435;28;20040;-59
2024/03/14 00:35:08;;;;;;;95.50;13.82;;;11.90;99.90;;;;;;5066390;28;20096;-58
2024/03/14 00:37:35;;;;;;;74.00;12.40;;;11.90;99.90;;;;;;5048649;28;20120;-59
2024/03/14 00:40:00;;;;;;;74.30;13.38;;;11.90;99.90;;;;;;5048530;28;20443;-59
2024/03/14 00:42:26;;;;;;;74.05;13.25;;;11.80;99.90;;;;;;5066161;28;20037;-58
2024/03/14 00:44:52;;;;;;;71.05;12.38;;;11.80;99.90;;;;;;5048229;28;20033;-59
2024/03/14 00:47:18;;;;;;;68.30;12.88;;;11.80;99.90;;;;;;5066393;28;20036;-59
2024/03/14 00:49:44;;;;;;;74.38;13.88;;;11.80;99.90;;;;;;5048273;28;20486;-58
2024/03/14 00:52:10;;;;;;;69.57;12.20;;;11.70;99.90;;;;;;5048380;28;20045;-59
2024/03/14 00:54:36;;;;;;;59.28;12.27;;;11.70;99.90;;;;;;5070224;28;20510;-59
2024/03/14 00:57:03;;;;;;;75.15;12.23;;;11.70;99.90;;;;;;5070253;28;20506;-59
2024/03/14 00:59:32;;;;;;;70.05;13.10;;;11.70;99.80;;;;;;5070456;28;20036;-58
2024/03/14 01:01:58;;;;;;;83.63;13.18;;;11.70;99.90;;;;;;5070604;28;20036;-58
2024/03/14 01:04:23;;;;;;;62.65;11.00;;;11.70;99.90;;;;;;5035983;28;20032;-59
2024/03/14 01:06:52;;;;;;;57.75;10.00;;;11.70;99.90;;;;;;5035752;28;20037;-59
2024/03/14 01:09:18;;;;;;;53.40;10.35;;;11.60;99.80;;;;;;5052585;28;20017;-59
2024/03/14 01:11:44;;;;;;;59.80;10.32;;;11.60;99.80;;;;;;5052149;28;20040;-58
2024/03/14 01:14:11;;;;;;;54.35;10.55;;;11.60;99.80;;;;;;5069988;28;20017;-59
2024/03/14 01:16:38;;;;;;;69.03;11.65;;;11.60;99.80;;;;;;5052368;28;20041;-58
2024/03/14 01:19:06;;;;;;;54.15;10.60;;;11.60;99.80;;;;;;5052200;28;20019;-59
2024/03/14 01:21:36;;;;;;;64.32;12.13;;;11.50;99.80;;;;;;5052241;28;20111;-59
2024/03/14 01:24:02;;;;;;;70.60;11.77;;;11.50;99.80;;;;;;5052512;28;20021;-59
2024/03/14 01:26:27;;;;;;;60.20;11.00;;;11.50;99.80;;;;;;5035298;28;20087;-59
2024/03/14 01:28:53;;;;;;;50.20;10.38;;;11.50;99.90;;;;;;5069785;28;20021;-59
2024/03/14 01:31:19;;;;;;;44.70;9.52;;;11.40;99.90;;;;;;5052497;28;20459;-58
2024/03/14 01:33:45;;;;;;;60.67;10.57;;;11.40;99.90;;;;;;5070136;28;20032;-59
2024/03/14 01:36:11;;;;;;;48.60;8.88;;;11.40;99.90;;;;;;5051454;28;20039;-58
2024/03/14 01:38:37;;;;;;;56.80;9.93;;;11.30;99.90;;;;;;5051598;28;20040;-59
2024/03/14 01:41:03;;;;;;;59.08;10.07;;;11.30;99.90;;;;;;5069301;28;20522;-58
2024/03/14 01:43:28;;;;;;;43.17;9.98;;;11.30;99.90;;;;;;5034938;28;20040;-59
2024/03/14 01:45:54;;;;;;;50.50;8.80;;;11.30;99.90;;;;;;5051273;28;20033;-59
2024/03/14 01:48:20;;;;;;;56.95;9.48;;;11.30;99.90;;;;;;5051338;28;20029;-59
2024/03/14 01:50:45;;;;;;;52.45;8.98;;;11.30;99.90;;;;;;5051372;28;20047;-59
2024/03/14 01:53:11;;;;;;;42.38;8.70;;;11.30;99.90;;;;;;5069048;28;20021;-59
2024/03/14 01:55:37;;;;;;;33.55;8.20;;;11.30;99.80;;;;;;5069090;28;20107;-58
2024/03/14 01:58:04;;;;;;;39.33;8.35;;;11.20;99.80;;;;;;5051592;28;20013;-59
2024/03/14 02:00:34;;;;;;;52.42;10.63;;;11.20;99.90;;;;;;5051321;28;20013;-58
2024/03/14 02:03:03;;;;;;;44.25;9.02;;;11.20;99.90;;;;;;5051478;28;20029;-58
2024/03/14 02:05:36;;;;;;;44.50;9.52;;;11.20;99.90;;;;;;5050539;28;20036;-59
2024/03/14 02:08:04;;;;;;;36.63;8.30;;;11.10;99.90;;;;;;5051569;28;20036;-58
2024/03/14 02:10:29;;;;;;;41.25;9.05;;;11.10;99.90;;;;;;5068954;28;20029;-58
2024/03/14 02:12:55;;;;;;;43.45;9.55;;;11.10;99.90;;;;;;5051174;28;20089;-58
2024/03/14 02:15:23;;;;;;;44.97;7.78;;;11.10;99.80;;;;;;5050827;28;20017;-58
2024/03/14 02:17:50;;;;;;;40.63;8.48;;;11.10;99.80;;;;;;5068697;28;20025;-59
2024/03/14 02:20:16;;;;;;;34.88;7.57;;;11.10;99.90;;;;;;5068844;28;20025;-59
2024/03/14 02:22:41;;;;;;;28.77;7.82;;;11.10;99.90;;;;;;5050997;28;20040;-58
2024/03/14 02:25:07;;;;;;;43.15;8.15;;;11.00;99.90;;;;;;5050939;28;20029;-59
2024/03/14 02:27:34;;;;;;;30.48;8.07;;;11.00;99.90;;;;;;5050815;28;20151;-59
2024/03/14 02:30:00;;;;;;;35.97;8.23;;;11.00;99.90;;;;;;5068490;28;20021;-58
2024/03/14 02:32:26;;;;;;;38.60;7.88;;;11.00;99.90;;;;;;5068636;28;20041;-58
2024/03/14 02:34:52;;;;;;;36.42;7.75;;;11.00;99.90;;;;;;5068459;28;20046;-58
2024/03/14 02:37:17;;;;;;;33.28;8.32;;;10.90;99.90;;;;;;5068165;28;20132;-58
2024/03/14 02:39:44;;;;;;;37.53;7.97;;;10.90;99.90;;;;;;5050411;28;20025;-59
2024/03/14 02:42:11;;;;;;;38.00;7.78;;;10.90;99.90;;;;;;5050637;28;20033;-58
2024/03/14 02:44:37;;;;;;;32.22;8.07;;;10.90;99.90;;;;;;5068211;28;20483;-58
2024/03/14 02:47:02;;;;;;;36.97;7.25;;;10.90;99.90;;;;;;5050321;28;20114;-58
2024/03/14 02:49:28;;;;;;;39.92;8.13;;;10.90;99.90;;;;;;5050242;28;20047;-59
2024/03/14 02:51:54;;;;;;;35.10;7.38;;;10.80;99.90;;;;;;5068055;28;20040;-59
2024/03/14 02:54:19;;;;;;;30.90;7.57;;;10.80;99.90;;;;;;5068006;28;20040;-59
2024/03/14 02:56:49;;;;;;;30.23;7.03;;;10.80;99.90;;;;;;5068165;28;20378;-58
2024/03/14 02:59:19;;;;;;;32.97;7.88;;;10.80;99.90;;;;;;5050611;28;20039;-58
2024/03/14 03:01:48;;;;;;;22.73;7.35;;;10.80;99.90;;;;;;5050269;28;20033;-58
2024/03/14 03:04:14;;;;;;;30.98;6.60;;;10.80;99.90;;;;;;5050252;28;20025;-59
2024/03/14 03:06:44;;;;;;;27.23;6.18;;;10.80;99.90;;;;;;5050129;28;20033;-59
2024/03/14 03:09:11;;;;;;;28.05;6.50;;;10.70;99.90;;;;;;5050699;28;20053;-59
2024/03/14 03:11:37;;;;;;;30.33;7.53;;;10.70;99.90;;;;;;5067683;28;20055;-59
2024/03/14 03:14:05;;;;;;;27.35;7.10;;;10.70;99.90;;;;;;5067652;28;20017;-59
2024/03/14 03:16:31;;;;;;;23.98;6.75;;;10.70;99.90;;;;;;5049033;28;20036;-59
2024/03/14 03:18:58;;;;;;;22.25;6.60;;;10.60;99.90;;;;;;5049642;28;20017;-59
2024/03/14 03:21:24;;;;;;;28.35;7.57;;;10.70;99.90;;;;;;5033386;28;20454;-59
2024/03/14 03:23:50;;;;;;;31.10;6.90;;;10.60;99.90;;;;;;5049590;28;20021;-59
2024/03/14 03:26:16;;;;;;;28.92;6.70;;;10.60;99.90;;;;;;5049444;28;20097;-59
2024/03/14 03:28:41;;;;;;;23.58;6.65;;;10.60;99.90;;;;;;5049713;28;20029;-59
2024/03/14 03:31:08;;;;;;;28.27;7.40;;;10.60;99.90;;;;;;5049449;28;20033;-59
2024/03/14 03:33:35;;;;;;;20.98;5.93;;;10.60;99.90;;;;;;5067306;28;20025;-59
2024/03/14 03:36:04;;;;;;;19.52;6.95;;;10.60;99.90;;;;;;5048969;28;20029;-59
2024/03/14 03:38:33;;;;;;;28.52;6.30;;;10.60;99.90;;;;;;5049865;28;20025;-59
2024/03/14 03:41:00;;;;;;;24.85;6.20;;;10.60;99.90;;;;;;5067052;28;20076;-59
2024/03/14 03:43:26;;;;;;;21.45;6.32;;;10.60;99.90;;;;;;5049083;28;20025;-59
2024/03/14 03:45:52;;;;;;;18.38;6.07;;;10.50;99.90;;;;;;5067177;28;20467;-59
2024/03/14 03:48:18;;;;;;;27.02;6.10;;;10.50;99.90;;;;;;5049486;28;20089;-59
2024/03/14 03:50:43;;;;;;;23.52;5.95;;;10.50;99.90;;;;;;5067118;28;20040;-59
2024/03/14 03:53:09;;;;;;;21.35;5.80;;;10.50;99.90;;;;;;5067124;28;20036;-59
2024/03/14 03:55:34;;;;;;;25.15;6.05;;;10.50;99.90;;;;;;5049375;28;20017;-59
2024/03/14 03:58:00;;;;;;;23.35;6.75;;;10.50;99.90;;;;;;5049083;28;20464;-59
2024/03/14 04:00:43;;;;;;;18.05;6.18;;;10.50;99.90;;;;;;5066565;28;20029;-59
2024/03/14 04:03:11;;;;;;;16.45;5.25;;;10.40;99.90;;;;;;5051465;28;20045;-59
2024/03/14 04:05:42;;;;;;;14.93;5.57;;;10.40;99.90;;;;;;5049094;28;20134;-59
2024/03/14 04:08:08;;;;;;;21.90;6.22;;;10.50;99.90;;;;;;5032646;28;20506;-59
2024/03/14 04:10:34;;;;;;;17.17;5.85;;;10.50;99.90;;;;;;5048994;28;20025;-58
2024/03/14 04:13:00;;;;;;;17.55;6.35;;;10.50;99.90;;;;;;5048650;28;20496;-59
2024/03/14 04:15:28;;;;;;;21.30;6.32;;;10.50;99.90;;;;;;5066540;28;20021;-58
2024/03/14 04:17:55;;;;;;;21.77;6.07;;;10.40;99.90;;;;;;5032275;28;20025;-59
2024/03/14 04:20:23;;;;;;;17.52;5.47;;;10.40;99.90;;;;;;5066623;28;20019;-59
2024/03/14 04:22:49;;;;;;;17.95;5.75;;;10.40;99.90;;;;;;5049050;28;20075;-59
2024/03/14 04:25:17;;;;;;;17.63;5.57;;;10.40;99.90;;;;;;5066543;28;20040;-59
2024/03/14 04:27:43;;;;;;;17.30;5.70;;;10.40;99.90;;;;;;5066228;28;20036;-59
2024/03/14 04:30:15;;;;;;;15.95;5.50;;;10.40;99.90;;;;;;5048607;28;20109;-59
2024/03/14 04:32:41;;;;;;;17.58;6.07;;;10.40;99.90;;;;;;5048898;28;20044;-59
2024/03/14 04:35:10;;;;;;;16.70;5.85;;;10.40;99.90;;;;;;5032272;28;20535;-59
2024/03/14 04:37:38;;;;;;;17.20;4.88;;;10.30;99.90;;;;;;5066313;28;20052;-59
2024/03/14 04:40:12;;;;;;;19.33;4.95;;;10.30;99.90;;;;;;5048912;28;20025;-59
2024/03/14 04:42:40;;;;;;;16.40;5.53;;;10.30;99.90;;;;;;5049340;28;20041;-59
2024/03/14 04:45:07;;;;;;;16.30;5.20;;;10.30;99.90;;;;;;5048954;28;20025;-59
2024/03/14 04:47:32;;;;;;;17.10;5.15;;;10.30;99.90;;;;;;5048399;28;20044;-59
2024/03/14 04:49:58;;;;;;;18.33;5.50;;;10.30;99.90;;;;;;5048457;28;20059;-59
2024/03/14 04:52:23;;;;;;;20.63;5.85;;;10.30;99.90;;;;;;5048235;28;20036;-59
2024/03/14 04:54:49;;;;;;;11.05;4.57;;;10.30;99.90;;;;;;5066164;28;20029;-59
2024/03/14 04:57:15;;;;;;;14.60;5.30;;;10.30;99.90;;;;;;5066103;28;20071;-59
2024/03/14 04:59:41;;;;;;;15.10;5.60;;;10.30;99.90;;;;;;5066162;28;20020;-59
2024/03/14 05:02:10;;;;;;;22.45;5.72;;;10.30;99.90;;;;;;5031894;28;20033;-59
2024/03/14 05:04:36;;;;;;;14.30;4.45;;;10.30;99.90;;;;;;5066028;28;20032;-59
2024/03/14 05:07:02;;;;;;;10.30;4.90;;;10.20;99.90;;;;;;5031781;28;20033;-59
2024/03/14 05:09:27;;;;;;;17.25;5.57;;;10.20;99.90;;;;;;5048345;28;20039;-59
2024/03/14 05:11:53;;;;;;;14.15;4.65;;;10.20;99.90;;;;;;5047981;28;20543;-59
2024/03/14 05:14:19;;;;;;;15.88;4.63;;;10.20;99.90;;;;;;5066014;28;20021;-59
2024/03/14 05:16:45;;;;;;;15.48;4.53;;;10.20;99.90;;;;;;5065965;28;20029;-59
2024/03/14 05:19:15;;;;;;;11.63;5.03;;;10.30;99.90;;;;;;5031726;28;20025;-59
2024/03/14 05:21:45;;;;;;;14.13;4.60;;;10.20;99.90;;;;;;5066000;28;20045;-59
2024/03/14 05:24:11;;;;;;;8.02;4.15;;;10.20;99.90;;;;;;5048602;28;20025;-59
2024/03/14 05:26:36;;;;;;;15.82;4.70;;;10.20;99.90;;;;;;5047945;28;20033;-59
2024/03/14 05:29:02;;;;;;;15.73;4.32;;;10.20;99.90;;;;;;5048105;28;20021;-59
2024/03/14 05:31:28;;;;;;;11.73;4.50;;;10.20;99.90;;;;;;5047934;28;20035;-59
2024/03/14 05:33:53;;;;;;;11.05;4.82;;;10.20;99.90;;;;;;5031304;28;20053;-59
2024/03/14 05:36:19;;;;;;;9.57;4.07;;;10.20;99.90;;;;;;5047991;28;20033;-59
2024/03/14 05:38:44;;;;;;;10.85;4.97;;;10.20;99.90;;;;;;5031445;28;20025;-59
2024/03/14 05:41:10;;;;;;;12.52;5.03;;;10.20;99.90;;;;;;5050836;28;20085;-59
2024/03/14 05:43:36;;;;;;;12.52;4.80;;;10.20;99.90;;;;;;5051547;28;20083;-59
2024/03/14 05:46:05;;;;;;;10.13;4.07;;;10.20;99.90;;;;;;5051516;28;20037;-59
2024/03/14 05:48:30;;;;;;;21.05;4.88;;;10.20;99.90;;;;;;5069176;28;20056;-60
2024/03/14 05:50:56;;;;;;;10.55;5.28;;;10.20;99.90;;;;;;5051460;28;20037;-57
2024/03/14 05:53:26;;;;;;;13.88;4.32;;;10.20;99.90;;;;;;5051244;28;20024;-57
2024/03/14 05:55:52;;;;;;;12.57;4.97;;;10.20;99.90;;;;;;5052190;28;20043;-60
2024/03/14 05:58:18;;;;;;;13.05;5.35;;;10.20;99.90;;;;;;5051357;28;20025;-59
2024/03/14 06:00:43;;;;;;;15.65;5.25;;;10.20;99.90;;;;;;5051202;28;20051;-60
2024/03/14 06:03:13;;;;;;;18.90;5.78;;;10.20;99.90;;;;;;5050962;28;20379;-59
2024/03/14 06:05:39;;;;;;;23.63;5.43;;;10.20;99.90;;;;;;5050973;28;20040;-59
2024/03/14 06:08:05;;;;;;;16.33;6.28;;;10.10;99.90;;;;;;5051262;28;20025;-58
2024/03/14 06:10:30;;;;;;;28.50;6.15;;;10.20;99.90;;;;;;5069245;28;20534;-58
2024/03/14 06:12:56;;;;;;;22.48;6.20;;;10.20;99.90;;;;;;5051905;28;20043;-58
2024/03/14 06:15:22;;;;;;;50.10;10.32;;;10.20;99.90;;;;;;5068949;28;20051;-59
2024/03/14 06:17:51;;;;;;;41.53;7.97;;;10.20;99.90;;;;;;5050886;28;20036;-59
2024/03/14 06:20:18;;;;;;;93.90;13.50;;;10.20;99.90;;;;;;5051500;28;20459;-59
2024/03/14 06:22:44;;;;;;;55.15;9.18;;;10.20;99.90;;;;;;5050862;28;20033;-59
2024/03/14 06:25:10;;;;;;;99.65;13.98;;;10.20;99.90;;;;;;5034001;28;20025;-59
2024/03/14 06:27:39;;;;;;;70.25;11.48;;;10.20;99.90;;;;;;5034246;28;20092;-58
2024/03/14 06:30:09;;;;;;;107.30;14.07;;;10.20;99.90;;;;;;5050702;28;20029;-58
2024/03/14 06:32:38;;;;;;;90.22;12.77;;;10.20;99.90;;;;;;5034343;28;20052;-57
2024/03/14 06:35:05;;;;;;;89.75;14.40;;;10.20;99.90;;;;;;5034752;28;20029;-57
2024/03/14 06:37:31;;;;;;;122.57;16.83;;;10.20;99.90;;;;;;5068059;28;20033;-58
2024/03/14 06:39:56;;;;;;;106.63;14.30;;;10.20;99.90;;;;;;5050421;28;20025;-58
2024/03/14 06:42:23;;;;;;;120.95;15.30;;;10.20;99.90;;;;;;5050591;28;20047;-58
2024/03/14 06:44:49;;;;;;;115.47;15.70;;;10.20;99.90;;;;;;5050471;28;20028;-57
2024/03/14 06:47:14;;;;;;;112.28;15.02;;;10.20;99.90;;;;;;5067961;28;20479;-58
2024/03/14 06:49:43;;;;;;;154.38;19.77;;;10.20;99.90;;;;;;5068223;28;20021;-57
2024/03/14 06:52:09;;;;;;;114.85;15.20;;;10.30;99.90;;;;;;5067903;28;20037;-57
2024/03/14 06:54:35;;;;;;;82.10;12.50;;;10.30;99.90;;;;;;5067997;28;20043;-58
2024/03/14 06:57:01;;;;;;;94.70;11.85;;;10.20;99.90;;;;;;5049467;28;20104;-58
2024/03/14 06:59:27;;;;;;;77.22;12.93;;;10.20;99.90;;;;;;5049215;28;20028;-58
2024/03/14 07:01:54;;;;;;;60.40;11.07;;;10.20;99.90;;;;;;5066718;28;20056;-58
2024/03/14 07:04:21;;;;;;;48.42;11.13;;;10.20;99.90;;;;;;5066959;28;20025;-58
2024/03/14 07:06:47;;;;;;;80.70;13.70;;;10.20;99.90;;;;;;5049435;28;20029;-58
2024/03/14 07:09:17;;;;;;;145.52;19.23;;;10.20;99.90;;;;;;5049680;28;20040;-57
2024/03/14 07:11:44;;;;;;;87.95;15.57;;;10.20;99.90;;;;;;5017601;28;20025;-58
2024/03/14 07:14:09;;;;;;;90.55;15.13;;;10.20;99.90;;;;;;5016867;28;20400;-58
2024/03/14 07:16:38;;;;;;;106.32;14.93;;;10.20;99.90;;;;;;5049147;28;20021;-58
2024/03/14 07:19:06;;;;;;;91.65;14.15;;;10.20;99.90;;;;;;5067484;28;20021;-58
2024/03/14 07:21:33;;;;;;;72.43;13.63;;;10.20;99.90;;;;;;5033720;28;20028;-57
2024/03/14 07:23:59;;;;;;;81.35;14.48;;;10.20;99.90;;;;;;5049855;28;20044;-57
2024/03/14 07:26:31;;;;;;;76.07;13.15;;;10.30;99.90;;;;;;5049686;28;20044;-58
2024/03/14 07:28:58;;;;;;;88.95;15.40;;;10.30;99.90;;;;;;5067420;28;20029;-58
2024/03/14 07:31:28;;;;;;;95.45;16.63;;;10.30;99.90;;;;;;5049366;28;20033;-58
2024/03/14 07:33:54;;;;;;;86.57;14.52;;;10.30;99.90;;;;;;5034124;28;20071;-57
2024/03/14 07:36:19;;;;;;;99.93;15.88;;;10.30;99.90;;;;;;5049170;28;20037;-57
2024/03/14 07:38:47;;;;;;;109.50;17.17;;;10.30;99.90;;;;;;5032653;28;20029;-58
2024/03/14 07:41:21;;;;;;;177.80;24.05;;;10.30;99.90;;;;;;5032773;28;20124;-58
2024/03/14 07:43:48;;;;;;;85.20;16.10;;;10.30;99.90;;;;;;5033022;28;20025;-58
2024/03/14 07:46:13;;;;;;;144.13;19.98;;;10.30;99.90;;;;;;5049316;28;20056;-57
2024/03/14 07:48:41;;;;;;;104.20;15.85;;;10.30;99.90;;;;;;5031859;28;20032;-58
2024/03/14 07:51:10;;;;;;;82.68;13.23;;;10.30;99.90;;;;;;5032842;28;20071;-58
2024/03/14 07:53:35;;;;;;;73.80;12.73;;;10.30;99.90;;;;;;5049131;28;20024;-58
2024/03/14 07:56:01;;;;;;;86.15;14.13;;;10.30;99.90;;;;;;5046274;28;20093;-58
2024/03/14 07:58:27;;;;;;;50.40;10.35;;;10.30;99.90;;;;;;5046362;28;20078;-58
2024/03/14 08:00:55;;;;;;;78.47;13.07;;;10.30;99.90;;;;;;5027998;28;20029;-57
2024/03/14 08:03:21;;;;;;;75.65;13.98;;;10.30;99.90;;;;;;5019256;28;20384;-58
2024/03/14 08:05:50;;;;;;;75.60;12.60;;;10.30;99.90;;;;;;5044541;28;20416;-57
2024/03/14 08:08:19;;;;;;;88.53;12.68;;;10.40;99.90;;;;;;5029099;28;20021;-58
2024/03/14 08:10:45;;;;;;;77.60;11.77;;;10.40;99.90;;;;;;5057121;28;20040;-58
2024/03/14 08:13:17;;;;;;;64.40;10.38;;;10.40;99.90;;;;;;5034954;28;20040;-58
2024/03/14 08:15:52;;;;;;;77.38;11.77;;;10.40;99.90;;;;;;5048535;28;20036;-58
2024/03/14 08:18:20;;;;;;;62.88;10.77;;;10.40;99.90;;;;;;5031431;28;20036;-58
2024/03/14 08:20:47;;;;;;;45.53;10.38;;;10.40;99.90;;;;;;5064449;28;20033;-57
2024/03/14 08:23:16;;;;;;;46.05;9.48;;;10.40;99.90;;;;;;5065464;28;20041;-58
2024/03/14 08:25:46;;;;;;;40.63;8.23;;;10.40;99.90;;;;;;5029953;28;20050;-58
2024/03/14 08:28:11;;;;;;;40.20;9.68;;;10.50;99.90;;;;;;5039958;28;20024;-57
2024/03/14 08:30:39;;;;;;;62.22;8.73;;;10.40;99.90;;;;;;5021442;28;20045;-57
2024/03/14 08:33:05;;;;;;;36.53;8.30;;;10.50;99.90;;;;;;5031388;28;20071;-58
2024/03/14 08:35:32;;;;;;;35.85;8.27;;;10.50;99.90;;;;;;5014061;28;21485;-57
2024/03/14 08:37:58;;;;;;;38.55;8.95;;;10.50;99.90;;;;;;5048174;28;20025;-58
2024/03/14 08:40:23;;;;;;;40.65;8.40;;;10.50;99.90;;;;;;5042799;28;20020;-58
2024/03/14 08:42:49;;;;;;;35.38;8.15;;;10.50;99.90;;;;;;5047951;28;20506;-57
2024/03/14 08:45:15;;;;;;;34.30;8.20;;;10.50;99.90;;;;;;5046144;28;20021;-57
2024/03/14 08:47:42;;;;;;;49.67;8.68;;;10.60;99.90;;;;;;5045519;28;20041;-57
2024/03/14 08:50:09;;;;;;;42.42;8.05;;;10.60;99.90;;;;;;5016800;28;20039;-58
2024/03/14 08:52:36;;;;;;;49.80;9.07;;;10.60;99.90;;;;;;5020545;28;20373;-57
2024/03/14 08:55:23;;;;;;;35.42;7.40;;;10.70;99.90;;;;;;5039754;28;20029;-57
2024/03/14 08:57:51;;;;;;;;;;;10.60;99.90;;;;;;5040533;28;20387;-57
2024/03/14 09:00:18;;;;;;;88.05;16.27;;;10.70;99.90;;;;;;5041424;28;19916;-57
2024/03/14 09:02:46;;;;;;;61.35;12.05;;;10.70;99.90;;;;;;5044420;28;20056;-57
2024/03/14 09:05:14;;;;;;;73.20;13.10;;;10.70;99.90;;;;;;5029054;28;20032;-58
2024/03/14 09:07:40;;;;;;;59.88;10.63;;;10.70;99.90;;;;;;5044040;28;20036;-57
2024/03/14 09:10:16;;;;;;;77.05;12.45;;;10.80;99.90;;;;;;5027789;28;20025;-57
2024/03/14 09:12:43;;;;;;;92.03;12.65;;;10.80;99.90;;;;;;5032020;28;20101;-57
2024/03/14 09:15:09;;;;;;;58.20;11.38;;;10.80;99.90;;;;;;5049418;28;20416;-57
2024/03/14 09:17:36;;;;;;;49.28;10.45;;;10.90;99.90;;;;;;5067471;28;20056;-57
2024/03/14 09:20:02;;;;;;;94.88;14.20;;;10.90;99.90;;;;;;5057665;28;20022;-58
2024/03/14 09:22:28;;;;;;;79.93;12.20;;;10.90;99.90;;;;;;5045740;28;20100;-58
2024/03/14 09:24:54;;;;;;;87.07;12.55;;;10.90;99.90;;;;;;5052381;28;20029;-58
2024/03/14 09:27:19;;;;;;;65.85;11.32;;;10.90;99.90;;;;;;5089103;28;20126;-58
2024/03/14 09:29:46;;;;;;;94.93;12.05;;;10.90;99.90;;;;;;5071312;28;20028;-58
2024/03/14 09:32:11;;;;;;;112.35;13.73;;;10.90;99.90;;;;;;5089028;28;20036;-58
2024/03/14 09:34:38;;;;;;;39.13;9.40;;;11.00;99.90;;;;;;5041392;28;20032;-58
2024/03/14 09:37:04;;;;;;;123.28;17.75;;;11.00;99.90;;;;;;5051345;28;20025;-58
2024/03/14 09:39:35;;;;;;;122.47;16.13;;;11.00;99.90;;;;;;5068781;28;20488;-58
2024/03/14 09:42:01;;;;;;;128.40;15.23;;;11.00;99.90;;;;;;5043454;28;20048;-58
2024/03/14 09:44:27;;;;;;;67.68;11.85;;;11.10;99.90;;;;;;5015200;28;20025;-58
2024/03/14 09:47:00;;;;;;;57.05;9.63;;;11.10;99.90;;;;;;5043233;28;20048;-58
2024/03/14 09:49:26;;;;;;;74.40;11.13;;;11.10;99.90;;;;;;5061915;28;20033;-58
2024/03/14 09:51:53;;;;;;;58.72;9.93;;;11.10;99.90;;;;;;5022600;28;20033;-58
2024/03/14 09:54:18;;;;;;;49.75;8.65;;;11.10;99.90;;;;;;5070192;28;20023;-58
2024/03/14 09:56:44;;;;;;;57.45;8.85;;;11.10;99.90;;;;;;5026800;28;20026;-58
2024/03/14 09:59:10;;;;;;;49.75;9.80;;;11.10;99.90;;;;;;5052461;28;20024;-58
2024/03/14 10:01:37;;;;;;;49.35;9.10;;;11.10;99.90;;;;;;5067058;28;20387;-58
2024/03/14 10:04:06;;;;;;;56.42;8.35;;;11.10;99.90;;;;;;5028213;28;20033;-58
2024/03/14 10:06:32;;;;;;;91.15;12.43;;;11.10;99.90;;;;;;5022542;28;20040;-58
2024/03/14 10:08:59;;;;;;;66.60;12.40;;;11.10;99.90;;;;;;5054958;28;20028;-58
2024/03/14 10:11:24;;;;;;;47.53;8.88;;;11.20;99.90;;;;;;5058561;28;20025;-58
2024/03/14 10:13:50;;;;;;;48.78;8.88;;;11.20;99.90;;;;;;5019457;28;20029;-58
2024/03/14 10:16:17;;;;;;;45.08;7.95;;;11.10;99.90;;;;;;5034257;28;20063;-58
2024/03/14 10:18:43;;;;;;;39.90;6.80;;;11.20;99.90;;;;;;5065527;28;20063;-58
2024/03/14 10:21:08;;;;;;;41.53;7.13;;;11.20;99.90;;;;;;5033479;28;20029;-58
2024/03/14 10:23:35;;;;;;;31.48;7.47;;;11.20;99.90;;;;;;5067824;28;20023;-58
2024/03/14 10:26:01;;;;;;;35.92;7.13;;;11.20;99.90;;;;;;5070987;28;20028;-58
2024/03/14 10:28:31;;;;;;;29.63;7.88;;;11.20;99.90;;;;;;5033712;28;20459;-58
2024/03/14 10:31:05;;;;;;;33.63;8.07;;;11.30;99.90;;;;;;5034128;28;20043;-58
2024/03/14 10:33:32;;;;;;;36.70;7.53;;;11.20;99.90;;;;;;5035883;28;20033;-58
2024/03/14 10:35:59;;;;;;;35.72;6.57;;;11.30;99.90;;;;;;5025713;28;20032;-58
2024/03/14 10:38:31;;;;;;;38.72;7.85;;;11.30;99.90;;;;;;5075882;28;20028;-58
2024/03/14 10:40:57;;;;;;;30.63;6.72;;;11.30;99.90;;;;;;5048790;28;20363;-58
2024/03/14 10:43:32;;;;;;;28.23;6.45;;;11.30;99.90;;;;;;5042439;28;20027;-58
2024/03/14 10:45:57;;;;;;;39.38;7.32;;;11.30;99.90;;;;;;5025025;28;20065;-57
2024/03/14 10:48:23;;;;;;;48.10;7.78;;;11.30;99.90;;;;;;5017320;28;20048;-58
2024/03/14 10:50:51;;;;;;;77.72;12.18;;;11.30;99.90;;;;;;5029202;28;20368;-58
2024/03/14 10:53:17;;;;;;;88.90;13.32;;;11.30;99.90;;;;;;5019658;28;20050;-58
2024/03/14 10:55:45;;;;;;;96.28;12.77;;;11.40;99.90;;;;;;5037122;28;20071;-58
2024/03/14 10:58:11;;;;;;;98.22;13.70;;;11.40;99.90;;;;;;5027955;28;20073;-58
2024/03/14 11:00:37;;;;;;;108.20;14.23;;;11.40;99.90;;;;;;5027631;28;20120;-58
2024/03/14 11:03:03;;;;;;;71.70;10.45;;;11.40;99.90;;;;;;5048063;28;20036;-58
2024/03/14 11:05:28;;;;;;;57.22;10.15;;;11.50;99.90;;;;;;5024272;28;20026;-53
2024/03/14 11:08:00;;;;;;;70.05;12.07;;;11.50;99.90;;;;;;5044706;28;20029;-52
2024/03/14 11:10:29;;;;;;;86.03;11.57;;;11.50;99.90;;;;;;5041806;28;20031;-52
2024/03/14 11:13:15;;;;;;;105.20;13.50;;;11.50;99.90;;;;;;5029356;28;20025;-52
2024/03/14 11:15:42;;;;;;;54.03;8.95;;;11.50;99.90;;;;;;5020949;28;20388;-52
2024/03/14 11:18:13;;;;;;;64.70;9.82;;;11.50;99.90;;;;;;5027366;28;20024;-52
2024/03/14 11:20:40;;;;;;;61.33;8.57;;;11.60;99.90;;;;;;5043734;28;20081;-52
2024/03/14 11:23:09;;;;;;;78.88;9.93;;;11.60;99.90;;;;;;5031904;28;20025;-52
2024/03/14 11:25:36;;;;;;;78.45;12.02;;;11.60;99.90;;;;;;5006848;28;20025;-52
2024/03/14 11:28:02;;;;;;;76.28;12.90;;;11.60;99.90;;;;;;5024773;28;20048;-52
2024/03/14 11:30:28;;;;;;;78.60;11.65;;;11.70;99.90;;;;;;5013961;28;20029;-51
2024/03/14 11:32:55;;;;;;;64.45;11.10;;;11.70;99.90;;;;;;5023593;28;20045;-52
2024/03/14 11:35:43;;;;;;;95.65;12.23;;;11.80;99.90;;;;;;5027294;28;20021;-52
2024/03/14 11:38:15;;;;;;;82.30;11.95;;;11.80;99.90;;;;;;5031209;28;20041;-52
2024/03/14 11:40:42;;;;;;;139.98;13.43;;;11.90;99.90;;;;;;5065568;28;20051;-51
2024/03/14 11:43:18;;;;;;;108.38;13.80;;;11.90;99.90;;;;;;5045147;28;20085;-52
2024/03/14 11:45:44;;;;;;;100.32;13.15;;;12.00;99.90;;;;;;5064758;28;20458;-52
2024/03/14 11:48:16;;;;;;;98.07;13.43;;;12.00;99.90;;;;;;5047527;28;20043;-52
2024/03/14 11:50:42;;;;;;;88.68;14.38;;;12.10;99.90;;;;;;5027776;28;20124;-52
2024/03/14 11:53:11;;;;;;;60.75;10.35;;;12.10;99.90;;;;;;5047185;28;20027;-52
2024/03/14 11:55:38;;;;;;;85.95;12.02;;;12.10;99.90;;;;;;5059736;28;20044;-52
2024/03/14 11:58:14;;;;;;;104.53;13.32;;;12.20;99.90;;;;;;5042888;28;20058;-52
2024/03/14 12:00:40;;;;;;;123.22;17.17;;;12.20;99.90;;;;;;5026077;28;20016;-52
2024/03/14 12:03:07;;;;;;;131.85;16.73;;;12.20;99.90;;;;;;5022318;28;20025;-52
2024/03/14 12:05:38;;;;;;;142.73;18.35;;;12.30;99.90;;;;;;5029182;28;20024;-52
2024/03/14 12:08:03;;;;;;;90.53;14.35;;;12.30;99.90;;;;;;5026585;28;20030;-51
2024/03/14 12:10:29;;;;;;;73.22;12.18;;;12.30;99.90;;;;;;5045919;28;20056;-51
2024/03/14 12:12:57;;;;;;;154.45;17.00;;;12.40;99.90;;;;;;5023439;28;20427;-51
2024/03/14 12:15:23;;;;;;;141.68;17.58;;;12.40;99.90;;;;;;5040431;28;20025;-52
2024/03/14 12:17:55;;;;;;;109.32;13.52;;;12.50;99.90;;;;;;5027107;28;20057;-52
2024/03/14 12:20:25;;;;;;;111.90;15.05;;;12.50;99.90;;;;;;5045786;28;20017;-52
2024/03/14 12:22:51;;;;;;;100.88;14.85;;;12.60;99.90;;;;;;5044533;28;20510;-51
2024/03/14 12:25:19;;;;;;;144.82;16.70;;;12.60;99.90;;;;;;5058541;28;20025;-52
2024/03/14 12:27:45;;;;;;;101.25;13.23;;;12.70;99.90;;;;;;5031435;28;20079;-52
2024/03/14 12:30:11;;;;;;;133.18;15.60;;;12.70;99.90;;;;;;5028679;28;20409;-52